Time;durP1;ratioP1;P1;durP2;ratioP2;P2;SDS_P1;SDS_P2;PMS_P1;PMS_P2;Temp;Humidity;BMP_temperature;BMP_pressure;BME280_temperature;BME280_humidity;BME280_pressure;Samples;Min_cycle;Max_cycle;Signal;HPM_P1;HPM_P2
2021/01/25 00:02:01;;;;;;;52.42;24.70;;;-0.70;99.90;;;;;;5097530;28;20028;-66
2021/01/25 00:04:26;;;;;;;47.10;22.67;;;-0.60;99.90;;;;;;5097498;28;20020;-66
2021/01/25 00:06:52;;;;;;;45.60;21.35;;;-0.70;99.90;;;;;;5097444;28;20036;-66
2021/01/25 00:09:17;;;;;;;40.67;21.73;;;-0.60;99.90;;;;;;5096738;28;20044;-65
2021/01/25 00:11:43;;;;;;;49.33;23.52;;;-0.70;99.90;;;;;;5097059;28;20086;-66
2021/01/25 00:14:08;;;;;;;50.00;22.50;;;-0.70;99.90;;;;;;5097310;28;20055;-66
2021/01/25 00:16:34;;;;;;;48.13;23.08;;;-0.70;99.90;;;;;;5097257;28;20028;-66
2021/01/25 00:19:00;;;;;;;43.65;23.15;;;-0.60;99.90;;;;;;5095501;28;20032;-66
2021/01/25 00:21:25;;;;;;;45.35;22.17;;;-0.60;99.90;;;;;;5097180;28;20116;-66
2021/01/25 00:23:51;;;;;;;44.45;22.50;;;-0.60;99.90;;;;;;5097133;28;20078;-66
2021/01/25 00:26:16;;;;;;;45.60;22.00;;;-0.50;99.90;;;;;;5097084;28;20032;-66
2021/01/25 00:28:42;;;;;;;44.28;21.33;;;-0.50;99.90;;;;;;5096966;28;20073;-66
2021/01/25 00:31:07;;;;;;;44.25;21.02;;;-0.40;99.90;;;;;;5096683;28;20024;-66
2021/01/25 00:33:33;;;;;;;41.50;21.30;;;-0.40;99.90;;;;;;5096942;28;20086;-66
2021/01/25 00:35:59;;;;;;;44.95;21.20;;;-0.30;99.90;;;;;;5095154;28;20023;-66
2021/01/25 00:38:25;;;;;;;40.42;20.65;;;-0.30;99.90;;;;;;5096857;28;20020;-66
2021/01/25 00:40:50;;;;;;;43.95;21.33;;;-0.30;99.90;;;;;;5096537;28;20016;-66
2021/01/25 00:43:16;;;;;;;45.88;21.58;;;-0.40;99.90;;;;;;5096743;28;20027;-66
2021/01/25 00:45:41;;;;;;;49.10;22.50;;;-0.50;99.90;;;;;;5096703;28;20047;-66
2021/01/25 00:48:07;;;;;;;46.65;22.00;;;-0.50;99.90;;;;;;5096660;28;20026;-66
2021/01/25 00:50:33;;;;;;;47.08;21.83;;;-0.50;99.90;;;;;;5096554;28;20111;-66
2021/01/25 00:52:58;;;;;;;46.38;21.42;;;-0.50;99.90;;;;;;5096568;28;20032;-66
2021/01/25 00:55:24;;;;;;;42.95;21.45;;;-0.40;99.90;;;;;;5096506;28;20035;-66
2021/01/25 00:57:49;;;;;;;51.15;21.73;;;-0.40;99.90;;;;;;5096472;28;20397;-67
2021/01/25 01:00:16;;;;;;;44.55;21.02;;;-0.40;99.90;;;;;;5096458;28;20032;-66
2021/01/25 01:02:41;;;;;;;45.25;21.98;;;-0.40;99.90;;;;;;5094647;28;20020;-65
2021/01/25 01:05:09;;;;;;;41.25;21.98;;;-0.40;99.90;;;;;;5096063;28;20020;-66
2021/01/25 01:07:35;;;;;;;46.33;21.30;;;-0.40;99.90;;;;;;5094528;28;20028;-65
2021/01/25 01:10:00;;;;;;;45.97;20.83;;;-0.30;99.90;;;;;;5095568;28;20097;-64
2021/01/25 01:12:26;;;;;;;38.58;20.02;;;-0.30;99.90;;;;;;5096207;28;20017;-65
2021/01/25 01:14:52;;;;;;;40.78;20.08;;;-0.30;99.90;;;;;;5094389;28;20067;-64
2021/01/25 01:17:18;;;;;;;35.53;18.70;;;-0.30;99.90;;;;;;5094299;28;20048;-67
2021/01/25 01:19:44;;;;;;;35.65;18.65;;;-0.30;99.90;;;;;;5096083;28;20032;-64
2021/01/25 01:22:09;;;;;;;36.03;18.50;;;-0.30;99.90;;;;;;5096045;28;20430;-64
2021/01/25 01:24:35;;;;;;;36.00;19.45;;;-0.30;99.90;;;;;;5095929;28;20020;-67
2021/01/25 01:27:00;;;;;;;44.55;19.55;;;-0.30;99.90;;;;;;5095895;28;20028;-66
2021/01/25 01:29:26;;;;;;;36.22;18.38;;;-0.30;99.90;;;;;;5095205;28;20107;-66
2021/01/25 01:31:51;;;;;;;37.22;18.45;;;-0.40;99.90;;;;;;5095819;28;20055;-66
2021/01/25 01:34:17;;;;;;;35.90;19.42;;;-0.40;99.90;;;;;;5095506;28;20095;-66
2021/01/25 01:36:42;;;;;;;40.67;19.08;;;-0.40;99.90;;;;;;5095480;28;20070;-66
2021/01/25 01:39:08;;;;;;;32.17;16.88;;;-0.40;99.90;;;;;;5095698;28;20508;-66
2021/01/25 01:41:35;;;;;;;33.85;17.95;;;-0.40;99.90;;;;;;5095308;28;20028;-66
2021/01/25 01:44:04;;;;;;;41.97;19.60;;;-0.40;99.90;;;;;;5095612;28;20020;-66
2021/01/25 01:46:31;;;;;;;40.95;19.08;;;-0.40;99.90;;;;;;5095303;28;20150;-66
2021/01/25 01:48:57;;;;;;;36.25;19.13;;;-0.40;99.90;;;;;;5095428;28;20031;-66
2021/01/25 01:51:23;;;;;;;38.78;18.83;;;-0.50;99.90;;;;;;5093886;28;20486;-66
2021/01/25 01:53:48;;;;;;;41.95;18.90;;;-0.50;99.90;;;;;;5095394;28;20032;-66
2021/01/25 01:56:14;;;;;;;39.97;18.38;;;-0.50;99.90;;;;;;5093508;28;20024;-66
2021/01/25 01:58:39;;;;;;;38.03;19.23;;;-0.50;99.90;;;;;;5095031;28;20024;-66
2021/01/25 02:01:05;;;;;;;37.05;18.73;;;-0.50;99.90;;;;;;5094667;28;20032;-66
2021/01/25 02:03:30;;;;;;;34.17;17.92;;;-0.60;99.90;;;;;;5093507;28;20040;-66
2021/01/25 02:05:57;;;;;;;42.42;19.23;;;-0.60;99.90;;;;;;5094648;28;20028;-66
2021/01/25 02:08:23;;;;;;;36.83;18.13;;;-0.60;99.90;;;;;;5094567;28;20032;-66
2021/01/25 02:10:53;;;;;;;33.15;17.83;;;-0.60;99.90;;;;;;5095101;28;20537;-66
2021/01/25 02:13:18;;;;;;;38.65;19.55;;;-0.60;99.90;;;;;;5094568;28;20020;-66
2021/01/25 02:15:44;;;;;;;36.88;19.35;;;-0.70;99.90;;;;;;5094853;28;20373;-66
2021/01/25 02:18:10;;;;;;;37.83;19.55;;;-0.60;99.90;;;;;;5094944;28;20099;-66
2021/01/25 02:20:41;;;;;;;40.20;19.50;;;-0.60;99.90;;;;;;5094854;28;20135;-65
2021/01/25 02:23:32;;;;;;;42.65;19.80;;;-0.70;99.90;;;;;;5094326;28;20069;-64
2021/01/25 02:26:22;;;;;;;37.80;19.20;;;-0.70;99.90;;;;;;5094284;28;20073;-65
2021/01/25 02:28:49;;;;;;;38.22;19.40;;;-0.70;99.90;;;;;;5094171;28;20063;-67
2021/01/25 02:31:15;;;;;;;43.75;19.85;;;-0.70;99.90;;;;;;5094733;28;20020;-66
2021/01/25 02:33:46;;;;;;;38.28;19.55;;;-0.70;99.90;;;;;;5094411;28;20020;-64
2021/01/25 02:36:13;;;;;;;39.05;19.15;;;-0.70;99.90;;;;;;5094664;28;20142;-66
2021/01/25 02:38:42;;;;;;;38.53;19.30;;;-0.70;99.90;;;;;;5094082;28;20027;-66
2021/01/25 02:41:09;;;;;;;39.45;18.65;;;-0.70;99.90;;;;;;5093129;28;20487;-66
2021/01/25 02:43:36;;;;;;;37.83;19.15;;;-0.70;99.90;;;;;;5094521;28;20028;-66
2021/01/25 02:46:03;;;;;;;43.35;20.25;;;-0.70;99.90;;;;;;5093348;28;20031;-66
2021/01/25 02:48:29;;;;;;;39.92;19.58;;;-0.70;99.90;;;;;;5093227;28;20028;-66
2021/01/25 02:50:54;;;;;;;38.88;20.08;;;-0.70;99.90;;;;;;5094460;28;20338;-66
2021/01/25 02:53:20;;;;;;;40.55;19.05;;;-0.70;99.90;;;;;;5094143;28;20020;-66
2021/01/25 02:55:46;;;;;;;37.00;19.42;;;-0.70;99.90;;;;;;5094346;28;20024;-66
2021/01/25 02:58:13;;;;;;;39.28;19.98;;;-0.70;99.90;;;;;;5094368;28;20044;-66
2021/01/25 03:00:39;;;;;;;38.45;19.30;;;-0.70;99.90;;;;;;5092883;28;20027;-66
2021/01/25 03:03:06;;;;;;;39.13;19.90;;;-0.70;99.90;;;;;;5092760;28;20020;-66
2021/01/25 03:05:32;;;;;;;37.88;19.50;;;-0.70;99.90;;;;;;5094001;28;20062;-66
2021/01/25 03:07:58;;;;;;;42.40;20.70;;;-0.80;99.90;;;;;;5093977;28;20051;-66
2021/01/25 03:10:23;;;;;;;37.47;19.25;;;-0.80;99.90;;;;;;5094095;28;20024;-66
2021/01/25 03:12:49;;;;;;;41.83;20.38;;;-0.80;99.90;;;;;;5094100;28;20031;-66
2021/01/25 03:15:18;;;;;;;38.25;19.77;;;-0.90;99.90;;;;;;5094118;28;20024;-66
2021/01/25 03:17:43;;;;;;;44.25;20.33;;;-0.80;99.90;;;;;;5092967;28;20028;-66
2021/01/25 03:20:09;;;;;;;44.63;20.33;;;-0.80;99.90;;;;;;5092911;28;20450;-66
2021/01/25 03:22:35;;;;;;;38.58;18.98;;;-0.90;99.90;;;;;;5094068;28;20483;-66
2021/01/25 03:25:00;;;;;;;40.60;19.20;;;-0.80;99.90;;;;;;5094967;28;20024;-66
2021/01/25 03:27:27;;;;;;;35.33;18.77;;;-0.80;99.90;;;;;;5097932;28;20427;-66
2021/01/25 03:29:53;;;;;;;40.97;19.15;;;-0.90;99.90;;;;;;5098128;28;20037;-66
2021/01/25 03:32:19;;;;;;;35.78;19.50;;;-0.90;99.90;;;;;;5096370;28;20455;-66
2021/01/25 03:34:44;;;;;;;36.75;19.25;;;-0.90;99.90;;;;;;5098076;28;20099;-66
2021/01/25 03:37:10;;;;;;;40.00;19.50;;;-0.90;99.90;;;;;;5097517;28;20028;-66
2021/01/25 03:39:35;;;;;;;34.35;17.58;;;-0.90;99.90;;;;;;5096815;28;20415;-64
2021/01/25 03:42:01;;;;;;;34.67;17.65;;;-0.90;99.90;;;;;;5097931;28;20034;-67
2021/01/25 03:44:27;;;;;;;34.72;17.85;;;-1.00;99.90;;;;;;5097363;28;20028;-68
2021/01/25 03:46:52;;;;;;;35.42;17.70;;;-1.10;99.90;;;;;;5097868;28;20465;-65
2021/01/25 03:49:18;;;;;;;32.38;17.95;;;-1.10;99.90;;;;;;5096173;28;20032;-65
2021/01/25 03:51:43;;;;;;;34.08;17.77;;;-1.20;99.90;;;;;;5097443;28;20400;-65
2021/01/25 03:54:11;;;;;;;37.28;18.00;;;-1.20;99.90;;;;;;5097744;28;20020;-64
2021/01/25 03:56:36;;;;;;;35.95;18.25;;;-1.30;99.90;;;;;;5097689;28;20016;-66
2021/01/25 03:59:02;;;;;;;35.95;17.85;;;-1.30;99.90;;;;;;5097611;28;20025;-65
2021/01/25 04:01:27;;;;;;;39.40;18.92;;;-1.30;99.90;;;;;;5097055;28;20216;-66
2021/01/25 04:03:53;;;;;;;37.85;19.27;;;-1.30;99.90;;;;;;5097541;28;20032;-64
2021/01/25 04:06:18;;;;;;;41.10;19.70;;;-1.30;99.90;;;;;;5097494;28;20035;-66
2021/01/25 04:08:44;;;;;;;41.95;19.70;;;-1.30;99.90;;;;;;5096707;28;20489;-64
2021/01/25 04:11:10;;;;;;;33.63;18.33;;;-1.30;99.90;;;;;;5097395;28;20020;-67
2021/01/25 04:13:35;;;;;;;39.83;20.75;;;-1.30;99.90;;;;;;5097329;28;20024;-67
2021/01/25 04:16:01;;;;;;;38.53;19.60;;;-1.30;99.90;;;;;;5096010;28;20111;-65
2021/01/25 04:18:26;;;;;;;41.42;19.23;;;-1.30;99.90;;;;;;5095790;28;20020;-65
2021/01/25 04:20:52;;;;;;;41.00;19.73;;;-1.30;99.90;;;;;;5097186;28;20051;-65
2021/01/25 04:23:17;;;;;;;44.15;20.95;;;-1.30;99.90;;;;;;5096882;28;20071;-66
2021/01/25 04:25:43;;;;;;;41.42;21.23;;;-1.30;99.90;;;;;;5097115;28;20024;-66
2021/01/25 04:28:08;;;;;;;44.65;22.75;;;-1.30;99.90;;;;;;5097098;28;20099;-66
2021/01/25 04:30:34;;;;;;;41.70;21.75;;;-1.20;99.90;;;;;;5096689;28;20358;-66
2021/01/25 04:32:59;;;;;;;46.88;22.35;;;-1.20;99.90;;;;;;5096987;28;20374;-66
2021/01/25 04:35:25;;;;;;;46.67;22.95;;;-1.10;99.90;;;;;;5096353;28;20489;-66
2021/01/25 04:37:51;;;;;;;43.17;21.67;;;-1.10;99.90;;;;;;5096188;28;20052;-66
2021/01/25 04:40:16;;;;;;;46.13;21.77;;;-1.10;99.90;;;;;;5096844;28;20028;-64
2021/01/25 04:42:42;;;;;;;42.25;21.52;;;-1.00;99.90;;;;;;5096537;28;20032;-64
2021/01/25 04:45:10;;;;;;;49.15;21.85;;;-1.00;99.90;;;;;;5095364;28;20028;-64
2021/01/25 04:47:38;;;;;;;46.00;22.23;;;-1.00;99.90;;;;;;5096713;28;20492;-66
2021/01/25 04:50:05;;;;;;;40.25;20.73;;;-1.00;99.90;;;;;;5096672;28;20024;-66
2021/01/25 04:52:30;;;;;;;39.50;20.52;;;-1.00;99.90;;;;;;5096400;28;20024;-66
2021/01/25 04:54:57;;;;;;;38.70;20.35;;;-1.00;99.90;;;;;;5095015;28;20395;-66
2021/01/25 04:57:23;;;;;;;38.88;19.45;;;-1.00;99.90;;;;;;5096554;28;20116;-66
2021/01/25 04:59:50;;;;;;;40.38;20.05;;;-1.00;99.90;;;;;;5096534;28;20107;-66
2021/01/25 05:02:16;;;;;;;42.38;21.08;;;-1.00;99.90;;;;;;5096477;28;20024;-66
2021/01/25 05:04:42;;;;;;;43.83;21.10;;;-1.00;99.90;;;;;;5096127;28;20031;-66
2021/01/25 05:07:07;;;;;;;40.50;20.77;;;-1.10;99.90;;;;;;5096331;28;20041;-66
2021/01/25 05:09:33;;;;;;;41.53;21.30;;;-1.10;99.90;;;;;;5095627;28;20121;-66
2021/01/25 05:12:02;;;;;;;45.88;22.33;;;-1.00;99.90;;;;;;5096032;28;20048;-66
2021/01/25 05:14:43;;;;;;;41.58;20.92;;;-1.10;99.90;;;;;;5096239;28;20381;-66
2021/01/25 05:17:11;;;;;;;41.17;20.63;;;-1.10;99.90;;;;;;5095050;28;20381;-66
2021/01/25 05:19:38;;;;;;;47.38;24.08;;;-1.10;99.90;;;;;;5095835;28;20053;-66
2021/01/25 05:22:20;;;;;;;48.13;23.02;;;-1.10;99.90;;;;;;5096052;28;20032;-70
2021/01/25 05:24:49;;;;;;;48.03;23.25;;;-1.00;99.90;;;;;;5095671;28;20099;-66
2021/01/25 05:27:23;;;;;;;44.80;22.20;;;-1.00;99.90;;;;;;5095984;28;20047;-66
2021/01/25 05:29:49;;;;;;;47.17;22.38;;;-1.00;99.90;;;;;;5095265;28;20028;-66
2021/01/25 05:32:17;;;;;;;42.63;21.30;;;-1.00;99.90;;;;;;5094101;28;20495;-66
2021/01/25 05:34:44;;;;;;;52.13;22.83;;;-1.00;99.90;;;;;;5095879;28;20024;-66
2021/01/25 05:37:17;;;;;;;45.70;22.63;;;-0.90;99.90;;;;;;5095464;28;20021;-66
2021/01/25 05:39:45;;;;;;;45.10;21.70;;;-0.90;99.90;;;;;;5095732;28;20547;-66
2021/01/25 05:42:11;;;;;;;45.53;22.73;;;-1.00;99.90;;;;;;5094672;28;20028;-66
2021/01/25 05:44:37;;;;;;;42.15;20.98;;;-1.00;99.90;;;;;;5094621;28;20035;-67
2021/01/25 05:47:05;;;;;;;48.35;22.95;;;-1.00;99.90;;;;;;5095583;28;20450;-66
2021/01/25 05:49:31;;;;;;;50.08;23.45;;;-1.00;99.90;;;;;;5094424;28;20024;-66
2021/01/25 05:51:57;;;;;;;45.83;22.17;;;-1.10;99.90;;;;;;5077453;28;20416;-66
2021/01/25 05:54:24;;;;;;;48.80;22.73;;;-1.10;99.90;;;;;;5095469;28;20099;-65
2021/01/25 05:56:50;;;;;;;42.60;20.83;;;-1.10;99.90;;;;;;5095377;28;20043;-65
2021/01/25 05:59:16;;;;;;;45.25;22.92;;;-1.10;99.90;;;;;;5095063;28;20400;-65
2021/01/25 06:01:43;;;;;;;49.85;23.08;;;-1.10;99.90;;;;;;5095263;28;20028;-65
2021/01/25 06:04:13;;;;;;;45.88;22.83;;;-1.10;99.90;;;;;;5094938;28;20020;-65
2021/01/25 06:06:39;;;;;;;46.20;22.25;;;-1.10;99.90;;;;;;5095165;28;20023;-65
2021/01/25 06:11:48;;;;;;;48.50;23.25;;;-1.20;99.90;;;;;;5112192;27;20400;-65
2021/01/25 06:14:22;;;;;;;45.83;22.50;;;-1.20;99.90;;;;;;5111928;28;20461;-65
2021/01/25 06:16:50;;;;;;;48.40;22.33;;;-1.20;99.90;;;;;;5111580;28;20028;-65
2021/01/25 06:19:20;;;;;;;44.42;22.35;;;-1.20;99.90;;;;;;5111301;28;20019;-65
2021/01/25 06:21:47;;;;;;;47.53;21.58;;;-1.20;99.90;;;;;;5111762;28;20115;-65
2021/01/25 06:24:13;;;;;;;44.85;22.38;;;-1.30;99.90;;;;;;5111741;28;20389;-65
2021/01/25 06:26:39;;;;;;;46.05;21.52;;;-1.30;99.90;;;;;;5111657;28;20034;-66
2021/01/25 06:29:07;;;;;;;38.38;20.42;;;-1.30;99.90;;;;;;5111338;28;20095;-65
2021/01/25 06:31:36;;;;;;;44.55;22.67;;;-1.30;99.90;;;;;;5111504;28;20027;-66
2021/01/25 06:34:03;;;;;;;39.88;19.63;;;-1.30;99.90;;;;;;5111589;28;20020;-65
2021/01/25 06:36:32;;;;;;;45.60;21.08;;;-1.30;99.90;;;;;;5111267;28;20415;-65
2021/01/25 06:38:58;;;;;;;46.00;22.45;;;-1.30;99.90;;;;;;5111211;28;20012;-66
2021/01/25 06:41:24;;;;;;;47.90;22.23;;;-1.30;99.90;;;;;;5110856;28;20482;-65
2021/01/25 06:43:50;;;;;;;50.70;23.27;;;-1.30;99.90;;;;;;5111348;28;20166;-65
2021/01/25 06:46:20;;;;;;;44.78;22.40;;;-1.30;99.90;;;;;;5110976;28;20487;-65
2021/01/25 06:48:48;;;;;;;48.65;23.17;;;-1.30;99.90;;;;;;5111040;28;20024;-65
2021/01/25 06:51:17;;;;;;;48.97;22.83;;;-1.30;99.90;;;;;;5110957;28;20377;-65
2021/01/25 06:53:43;;;;;;;50.83;21.73;;;-1.30;99.90;;;;;;5109546;28;20423;-65
2021/01/25 06:56:09;;;;;;;43.60;22.38;;;-1.30;99.90;;;;;;5093086;28;20027;-65
2021/01/25 06:58:38;;;;;;;41.97;21.00;;;-1.30;99.90;;;;;;5110990;28;20048;-65
2021/01/25 07:01:06;;;;;;;44.03;20.77;;;-1.30;99.90;;;;;;5109836;28;20468;-65
2021/01/25 07:03:53;;;;;;;43.70;21.50;;;-1.40;99.90;;;;;;5110736;28;20027;-65
2021/01/25 07:06:19;;;;;;;46.42;22.15;;;-1.30;99.90;;;;;;5109225;28;20020;-65
2021/01/25 07:08:53;;;;;;;44.25;20.83;;;-1.30;99.90;;;;;;5111046;28;20520;-65
2021/01/25 07:11:20;;;;;;;44.80;20.92;;;-1.30;99.90;;;;;;5110106;28;20069;-65
2021/01/25 07:13:46;;;;;;;43.40;21.23;;;-1.30;99.90;;;;;;5110648;28;20339;-65
2021/01/25 07:16:12;;;;;;;44.28;21.95;;;-1.30;99.90;;;;;;5110508;28;20024;-65
2021/01/25 07:18:42;;;;;;;45.65;20.25;;;-1.30;99.90;;;;;;5110287;28;20354;-65
2021/01/25 07:21:08;;;;;;;45.50;21.02;;;-1.30;99.90;;;;;;5106883;28;20031;-66
2021/01/25 07:23:40;;;;;;;45.45;20.75;;;-1.30;99.90;;;;;;5096435;28;20032;-65
2021/01/25 07:26:05;;;;;;;37.85;19.45;;;-1.30;99.90;;;;;;5096835;28;20024;-65
2021/01/25 07:28:31;;;;;;;46.35;21.63;;;-1.40;99.90;;;;;;5096206;28;20050;-65
2021/01/25 07:30:58;;;;;;;37.30;20.75;;;-1.40;99.90;;;;;;5096519;28;20027;-65
2021/01/25 07:33:24;;;;;;;48.15;22.23;;;-1.40;99.90;;;;;;5096025;28;20039;-65
2021/01/25 07:35:51;;;;;;;50.17;23.05;;;-1.50;99.90;;;;;;5096545;28;20081;-65
2021/01/25 07:38:17;;;;;;;42.10;21.85;;;-1.40;99.90;;;;;;5096504;28;20012;-65
2021/01/25 07:40:44;;;;;;;47.85;22.38;;;-1.40;99.90;;;;;;5096328;28;20031;-65
2021/01/25 07:43:10;;;;;;;55.22;24.67;;;-1.30;99.90;;;;;;5086286;28;20039;-65
2021/01/25 07:45:36;;;;;;;41.80;22.23;;;-1.30;99.90;;;;;;5084077;28;20039;-65
2021/01/25 07:48:01;;;;;;;45.17;23.13;;;-1.20;99.90;;;;;;5091963;28;20048;-65
2021/01/25 07:50:27;;;;;;;41.08;22.35;;;-1.10;99.90;;;;;;5092037;28;20024;-65
2021/01/25 07:52:58;;;;;;;50.63;23.95;;;-1.00;99.90;;;;;;5095628;28;20031;-65
2021/01/25 07:55:24;;;;;;;49.38;23.50;;;-0.90;99.90;;;;;;5095422;28;20045;-65
2021/01/25 07:57:50;;;;;;;49.63;24.25;;;-0.80;99.90;;;;;;5091850;28;20025;-66
2021/01/25 08:00:22;;;;;;;50.53;24.35;;;-0.70;99.90;;;;;;5074435;28;20036;-66
2021/01/25 08:03:11;;;;;;;45.42;23.60;;;-0.50;99.90;;;;;;5080349;28;20421;-65
2021/01/25 08:05:38;;;;;;;45.42;23.17;;;-0.40;99.90;;;;;;5095153;28;20051;-65
2021/01/25 08:08:06;;;;;;;47.60;24.02;;;-0.20;99.90;;;;;;5093594;28;20424;-66
2021/01/25 08:10:32;;;;;;;44.10;23.17;;;-0.20;99.90;;;;;;5074305;28;20033;-66
2021/01/25 08:18:40;;;;;;;37.70;19.38;;;0.00;99.90;;;;;;5090736;28;20402;-66
2021/01/25 08:21:07;;;;;;;42.10;21.13;;;0.30;99.90;;;;;;5090353;28;20052;-66
2021/01/25 08:23:40;;;;;;;38.05;20.75;;;0.30;99.90;;;;;;5090337;28;20056;-66
2021/01/25 08:26:07;;;;;;;38.15;20.42;;;0.30;99.90;;;;;;5089283;28;20020;-66
2021/01/25 08:28:37;;;;;;;36.13;20.70;;;0.40;99.90;;;;;;5089382;28;20024;-66
2021/01/25 08:31:13;;;;;;;39.80;22.77;;;0.60;99.90;;;;;;5087565;28;20030;-66
2021/01/25 08:33:43;;;;;;;40.33;23.17;;;0.70;99.90;;;;;;5069870;28;20024;-66
2021/01/25 08:36:12;;;;;;;41.65;21.80;;;0.80;99.90;;;;;;5069972;28;20016;-66
2021/01/25 08:38:41;;;;;;;37.20;21.77;;;0.80;99.90;;;;;;5080136;28;20380;-66
2021/01/25 08:41:22;;;;;;;41.42;21.88;;;0.90;99.90;;;;;;5090142;28;20016;-66
2021/01/25 08:43:59;;;;;;;39.72;21.90;;;0.90;99.90;;;;;;5071876;28;20369;-67
2021/01/25 08:46:30;;;;;;;39.15;22.13;;;1.00;99.90;;;;;;5084153;28;20028;-66
2021/01/25 08:51:59;;;;;;;40.28;21.17;;;1.10;99.90;;;;;;5132196;27;20107;-64
2021/01/25 08:54:30;;;;;;;34.10;19.37;;;1.10;99.90;;;;;;5092934;28;20035;-63
2021/01/25 08:56:57;;;;;;;33.10;18.52;;;1.20;99.90;;;;;;5099493;28;20025;-66
2021/01/25 08:59:33;;;;;;;34.00;18.08;;;1.20;99.90;;;;;;5099169;28;20031;-66
2021/01/25 09:02:10;;;;;;;35.20;19.98;;;1.30;99.90;;;;;;5097200;28;20042;-66
2021/01/25 09:04:35;;;;;;;34.50;18.30;;;1.30;99.90;;;;;;5072544;28;20534;-66
2021/01/25 09:07:01;;;;;;;32.63;18.15;;;1.40;99.90;;;;;;5090498;28;20051;-67
2021/01/25 09:09:27;;;;;;;35.53;19.02;;;1.40;99.90;;;;;;5092585;28;20404;-66
2021/01/25 09:11:52;;;;;;;30.98;18.33;;;1.60;99.90;;;;;;5110831;28;20020;-66
2021/01/25 09:14:20;;;;;;;39.90;23.05;;;1.80;99.90;;;;;;5099984;28;20024;-66
2021/01/25 09:16:46;;;;;;;56.88;33.95;;;1.90;99.90;;;;;;5090060;28;20044;-66
2021/01/25 09:19:14;;;;;;;38.40;23.00;;;2.00;99.90;;;;;;5055733;28;20055;-66
2021/01/25 09:21:39;;;;;;;41.53;21.63;;;2.10;99.90;;;;;;5090574;28;20020;-67
2021/01/25 09:24:06;;;;;;;32.35;19.67;;;2.20;99.90;;;;;;5089717;28;20084;-66
2021/01/25 09:26:32;;;;;;;37.55;18.73;;;2.20;99.90;;;;;;5093991;28;20046;-66
2021/01/25 09:28:58;;;;;;;33.15;18.30;;;2.30;99.90;;;;;;5089801;28;20029;-66
2021/01/25 09:31:26;;;;;;;42.83;20.85;;;2.40;99.90;;;;;;5089948;28;20028;-66
2021/01/25 09:33:53;;;;;;;39.38;21.75;;;2.50;99.90;;;;;;5090027;28;20024;-66
2021/01/25 09:36:18;;;;;;;35.83;19.85;;;2.40;99.90;;;;;;5089745;28;20016;-66
2021/01/25 09:38:44;;;;;;;31.48;17.65;;;2.50;99.90;;;;;;5089811;28;20456;-66
2021/01/25 09:41:10;;;;;;;25.85;13.80;;;2.60;99.90;;;;;;5103059;28;20529;-66
2021/01/25 09:43:35;;;;;;;20.98;12.60;;;2.70;99.90;;;;;;5103968;28;20059;-66
2021/01/25 09:46:01;;;;;;;23.58;14.07;;;2.80;99.90;;;;;;5105284;28;20040;-66
2021/01/25 09:48:26;;;;;;;33.20;18.20;;;2.70;99.90;;;;;;5109635;28;20034;-67
2021/01/25 09:50:52;;;;;;;36.08;19.00;;;2.70;99.90;;;;;;5097544;28;20052;-66
2021/01/25 09:53:18;;;;;;;33.47;18.90;;;2.70;99.90;;;;;;5089376;28;20021;-66
2021/01/25 09:55:43;;;;;;;33.80;18.90;;;2.70;99.90;;;;;;5089688;28;20064;-67
2021/01/25 09:58:08;;;;;;;36.15;19.00;;;2.70;99.90;;;;;;5086717;28;20322;-67
2021/01/25 10:00:34;;;;;;;29.77;15.88;;;2.80;99.90;;;;;;5052514;28;20419;-67
2021/01/25 10:03:00;;;;;;;29.42;17.02;;;2.70;99.90;;;;;;5064126;28;20033;-67
2021/01/25 10:05:25;;;;;;;29.45;15.90;;;2.60;99.90;;;;;;5055727;28;20033;-67
2021/01/25 10:07:51;;;;;;;25.83;16.48;;;2.60;99.90;;;;;;5065596;28;20029;-67
2021/01/25 10:10:17;;;;;;;27.42;16.42;;;2.70;99.90;;;;;;5075089;28;20154;-67
2021/01/25 10:12:43;;;;;;;29.27;16.92;;;2.70;99.90;;;;;;5057064;28;20494;-66
2021/01/25 10:15:12;;;;;;;26.48;16.65;;;2.60;99.90;;;;;;5057741;28;20024;-66
2021/01/25 10:17:38;;;;;;;30.13;16.83;;;2.70;99.90;;;;;;5055468;28;20025;-67
2021/01/25 10:20:05;;;;;;;26.58;16.58;;;2.80;99.90;;;;;;5054813;28;20040;-67
2021/01/25 10:22:31;;;;;;;37.33;18.17;;;3.00;99.90;;;;;;5055168;28;20060;-66
2021/01/25 10:24:57;;;;;;;26.20;17.13;;;3.40;99.90;;;;;;5054479;28;20102;-67
2021/01/25 10:27:22;;;;;;;32.38;17.02;;;3.80;99.90;;;;;;5055164;28;20390;-67
2021/01/25 10:29:48;;;;;;;24.15;16.08;;;3.70;99.90;;;;;;5037481;28;20022;-67
2021/01/25 10:32:15;;;;;;;30.75;16.65;;;3.70;99.90;;;;;;5037258;28;20037;-66
2021/01/25 10:34:42;;;;;;;26.35;16.13;;;3.80;99.90;;;;;;5037647;28;20032;-67
2021/01/25 10:37:08;;;;;;;29.52;16.40;;;3.80;99.90;;;;;;5055132;28;20036;-67
2021/01/25 10:39:33;;;;;;;27.67;16.63;;;3.80;99.90;;;;;;5055560;28;20101;-67
2021/01/25 10:41:59;;;;;;;27.55;16.45;;;4.00;99.90;;;;;;5055043;28;20021;-67
2021/01/25 10:44:24;;;;;;;33.75;19.17;;;4.00;99.90;;;;;;5020777;28;20021;-67
2021/01/25 10:46:50;;;;;;;27.45;15.95;;;4.00;99.90;;;;;;5054935;28;20029;-67
2021/01/25 10:49:15;;;;;;;22.17;13.93;;;3.90;99.90;;;;;;5054834;28;20028;-67
2021/01/25 10:51:41;;;;;;;23.40;14.15;;;3.80;99.90;;;;;;5054571;28;20418;-67
2021/01/25 10:54:06;;;;;;;26.50;13.85;;;3.80;99.90;;;;;;5054850;28;20025;-66
2021/01/25 10:56:32;;;;;;;25.73;14.60;;;3.80;99.90;;;;;;5054992;28;20463;-67
2021/01/25 10:58:58;;;;;;;19.98;13.30;;;3.70;99.90;;;;;;5055086;28;20099;-66
2021/01/25 11:01:23;;;;;;;25.02;14.52;;;3.70;99.90;;;;;;5054771;28;20029;-67
2021/01/25 11:03:49;;;;;;;22.67;14.43;;;3.70;99.90;;;;;;5054398;28;20033;-67
2021/01/25 11:06:16;;;;;;;27.23;14.60;;;3.60;99.90;;;;;;5036816;28;20040;-67
2021/01/25 11:08:41;;;;;;;28.45;15.27;;;3.70;99.90;;;;;;5054837;28;20100;-67
2021/01/25 11:11:08;;;;;;;23.42;14.73;;;3.60;99.90;;;;;;5054504;28;20040;-67
2021/01/25 11:13:33;;;;;;;26.10;15.82;;;3.90;99.90;;;;;;5053764;28;20060;-67
2021/01/25 11:15:59;;;;;;;29.45;17.73;;;4.10;99.90;;;;;;5060685;28;20056;-67
2021/01/25 11:18:24;;;;;;;26.85;15.73;;;4.80;99.90;;;;;;5066800;28;20029;-67
2021/01/25 11:20:51;;;;;;;23.88;16.25;;;5.60;99.90;;;;;;5043877;28;20040;-67
2021/01/25 11:23:16;;;;;;;30.08;16.85;;;6.30;99.90;;;;;;5074503;28;20039;-67
2021/01/25 11:25:42;;;;;;;21.17;15.18;;;6.40;99.90;;;;;;5074228;28;20107;-67
2021/01/25 11:28:07;;;;;;;17.95;12.25;;;6.80;99.90;;;;;;5055830;28;20030;-67
2021/01/25 11:30:33;;;;;;;20.48;13.65;;;7.00;99.90;;;;;;5071923;28;20492;-68
2021/01/25 11:32:59;;;;;;;16.95;12.38;;;6.90;99.90;;;;;;5070739;28;20032;-67
2021/01/25 11:35:25;;;;;;;17.63;12.50;;;6.30;99.90;;;;;;5039119;28;20363;-67
2021/01/25 11:37:50;;;;;;;24.60;14.20;;;5.80;99.90;;;;;;5054613;28;20021;-67
2021/01/25 11:40:17;;;;;;;26.10;15.15;;;5.50;99.90;;;;;;5053725;28;20207;-67
2021/01/25 11:42:43;;;;;;;26.27;13.88;;;5.10;99.90;;;;;;5057152;28;20020;-67
2021/01/25 11:45:09;;;;;;;25.35;15.35;;;4.90;99.90;;;;;;5067949;28;20606;-67
2021/01/25 11:47:35;;;;;;;32.03;17.48;;;4.70;99.90;;;;;;5065714;28;20512;-67
2021/01/25 11:50:01;;;;;;;27.70;15.65;;;4.70;99.90;;;;;;5056536;28;20045;-66
2021/01/25 11:52:26;;;;;;;24.77;14.93;;;4.60;99.90;;;;;;5064505;28;20362;-66
2021/01/25 11:54:52;;;;;;;21.75;14.35;;;4.60;99.90;;;;;;5073883;28;20025;-66
2021/01/25 11:57:17;;;;;;;28.58;15.43;;;4.70;99.90;;;;;;5073633;28;20025;-66
2021/01/25 11:59:43;;;;;;;20.17;13.27;;;4.60;99.90;;;;;;5054835;28;20029;-67
2021/01/25 12:02:08;;;;;;;26.08;14.60;;;4.50;99.90;;;;;;5057674;28;20028;-67
2021/01/25 12:04:34;;;;;;;24.38;13.70;;;4.80;99.90;;;;;;5054911;28;20029;-67
2021/01/25 12:06:59;;;;;;;22.73;12.93;;;4.90;99.90;;;;;;5061555;28;20025;-67
2021/01/25 12:09:25;;;;;;;20.58;11.95;;;5.00;99.90;;;;;;5055833;28;20028;-66
2021/01/25 12:11:52;;;;;;;20.83;12.73;;;5.20;99.90;;;;;;5073302;28;20029;-67
2021/01/25 12:14:18;;;;;;;20.25;12.68;;;5.10;99.90;;;;;;5063785;28;20025;-67
2021/01/25 12:16:44;;;;;;;22.77;12.82;;;5.20;99.90;;;;;;5053397;28;20025;-67
2021/01/25 12:19:10;;;;;;;22.33;14.05;;;5.20;99.90;;;;;;5053286;28;20021;-67
2021/01/25 12:21:35;;;;;;;26.02;14.48;;;4.80;99.90;;;;;;5067654;28;20037;-67
2021/01/25 12:24:03;;;;;;;23.52;14.07;;;4.70;99.90;;;;;;5055545;28;20095;-67
2021/01/25 12:26:29;;;;;;;24.23;14.75;;;4.70;99.90;;;;;;5037592;28;20025;-67
2021/01/25 12:28:54;;;;;;;30.95;15.68;;;4.80;99.90;;;;;;5041323;28;20036;-67
2021/01/25 12:31:21;;;;;;;28.88;16.33;;;4.70;99.90;;;;;;5072398;28;20035;-67
2021/01/25 12:33:46;;;;;;;35.88;16.30;;;4.40;99.90;;;;;;5057989;28;20021;-67
2021/01/25 12:36:12;;;;;;;33.78;16.45;;;4.50;99.90;;;;;;5053081;28;20029;-69
2021/01/25 12:38:38;;;;;;;28.35;16.30;;;4.30;99.90;;;;;;5064869;28;20044;-72
2021/01/25 12:41:04;;;;;;;25.70;16.50;;;4.30;99.90;;;;;;5054186;28;20074;-72